sensor_id;sensor_type;location;lat;lon;timestamp;pressure;altitude;pressure_sealevel;temperature;humidity
57248;BME280;55809;46.618;10.764;2024-03-23T00:55:55;92743.63;;;8.19;100.00
57248;BME280;55809;46.618;10.764;2024-03-23T00:58:21;92813.44;;;8.80;100.00
57248;BME280;55809;46.618;10.764;2024-03-23T01:00:48;92813.81;;;8.78;100.00
57248;BME280;55809;46.618;10.764;2024-03-23T01:03:14;92812.69;;;8.68;100.00
57248;BME280;55809;46.618;10.764;2024-03-23T01:05:41;92809.66;;;8.63;100.00
57248;BME280;55809;46.618;10.764;2024-03-23T01:08:07;92809.22;;;8.72;100.00
57248;BME280;55809;46.618;10.764;2024-03-23T01:10:36;92814.59;;;8.72;100.00
57248;BME280;55809;46.618;10.764;2024-03-23T01:13:02;92812.31;;;8.74;100.00
57248;BME280;55809;46.618;10.764;2024-03-23T01:15:29;92815.38;;;8.83;100.00
57248;BME280;55809;46.618;10.764;2024-03-23T01:17:55;92813.47;;;8.76;100.00
57248;BME280;55809;46.618;10.764;2024-03-23T01:20:22;92805.38;;;8.76;100.00
57248;BME280;55809;46.618;10.764;2024-03-23T01:22:48;92802.72;;;8.73;100.00
57248;BME280;55809;46.618;10.764;2024-03-23T01:25:15;92806.19;;;8.69;100.00
57248;BME280;55809;46.618;10.764;2024-03-23T01:27:43;92776.28;;;8.42;100.00
57248;BME280;55809;46.618;10.764;2024-03-23T01:30:10;92812.34;;;8.59;100.00
57248;BME280;55809;46.618;10.764;2024-03-23T01:32:36;92807.34;;;8.61;100.00
57248;BME280;55809;46.618;10.764;2024-03-23T01:35:04;92810.81;;;8.55;100.00
57248;BME280;55809;46.618;10.764;2024-03-23T01:37:30;92813.13;;;8.56;100.00
57248;BME280;55809;46.618;10.764;2024-03-23T01:39:57;92814.69;;;8.43;100.00
57248;BME280;55809;46.618;10.764;2024-03-23T01:42:23;92719.50;;;7.62;100.00
57248;BME280;55809;46.618;10.764;2024-03-23T01:44:52;92808.94;;;8.05;100.00
57248;BME280;55809;46.618;10.764;2024-03-23T01:47:19;92809.34;;;8.00;100.00
57248;BME280;55809;46.618;10.764;2024-03-23T01:49:46;92806.25;;;7.94;100.00
57248;BME280;55809;46.618;10.764;2024-03-23T01:52:12;92807.78;;;7.88;100.00
57248;BME280;55809;46.618;10.764;2024-03-23T01:54:39;92802.41;;;7.78;100.00
57248;BME280;55809;46.618;10.764;2024-03-23T01:57:06;92799.34;;;7.72;100.00
57248;BME280;55809;46.618;10.764;2024-03-23T01:59:33;92795.47;;;7.73;100.00
57248;BME280;55809;46.618;10.764;2024-03-23T02:02:00;92794.34;;;7.78;100.00
57248;BME280;55809;46.618;10.764;2024-03-23T02:04:27;92731.00;;;7.26;100.00
57248;BME280;55809;46.618;10.764;2024-03-23T02:06:53;92781.28;;;7.72;100.00
57248;BME280;55809;46.618;10.764;2024-03-23T02:09:20;92774.78;;;7.91;100.00
57248;BME280;55809;46.618;10.764;2024-03-23T02:11:46;92777.84;;;7.97;100.00
57248;BME280;55809;46.618;10.764;2024-03-23T02:14:13;92719.91;;;7.67;100.00
57248;BME280;55809;46.618;10.764;2024-03-23T02:16:40;92692.66;;;7.65;100.00
57248;BME280;55809;46.618;10.764;2024-03-23T02:19:08;92759.41;;;8.06;100.00
57248;BME280;55809;46.618;10.764;2024-03-23T02:21:34;92744.81;;;8.07;100.00
57248;BME280;55809;46.618;10.764;2024-03-23T02:24:03;92747.88;;;8.06;100.00
57248;BME280;55809;46.618;10.764;2024-03-23T02:26:29;92748.28;;;8.01;100.00
57248;BME280;55809;46.618;10.764;2024-03-23T02:28:56;92746.75;;;8.03;100.00
57248;BME280;55809;46.618;10.764;2024-03-23T02:31:22;92734.44;;;8.02;100.00
57248;BME280;55809;46.618;10.764;2024-03-23T02:33:49;92740.59;;;7.99;100.00
57248;BME280;55809;46.618;10.764;2024-03-23T02:36:15;92739.44;;;7.93;100.00
57248;BME280;55809;46.618;10.764;2024-03-23T02:38:42;92735.25;;;7.78;100.00
57248;BME280;55809;46.618;10.764;2024-03-23T02:41:09;92688.81;;;7.27;100.00
57248;BME280;55809;46.618;10.764;2024-03-23T02:43:38;92727.94;;;7.57;100.00
57248;BME280;55809;46.618;10.764;2024-03-23T02:46:04;92681.53;;;7.17;100.00
57248;BME280;55809;46.618;10.764;2024-03-23T02:48:31;92679.59;;;7.03;100.00
57248;BME280;55809;46.618;10.764;2024-03-23T02:50:57;92719.50;;;7.40;100.00
57248;BME280;55809;46.618;10.764;2024-03-23T02:53:24;92723.75;;;7.41;100.00
57248;BME280;55809;46.618;10.764;2024-03-23T02:55:50;92721.81;;;7.49;100.00
57248;BME280;55809;46.618;10.764;2024-03-23T02:58:18;92708.78;;;7.58;100.00
57248;BME280;55809;46.618;10.764;2024-03-23T03:00:44;92707.97;;;7.83;100.00
57248;BME280;55809;46.618;10.764;2024-03-23T03:03:11;92707.19;;;8.04;100.00
57248;BME280;55809;46.618;10.764;2024-03-23T03:05:37;92712.56;;;8.00;100.00
57248;BME280;55809;46.618;10.764;2024-03-23T03:08:05;92711.03;;;7.95;100.00
57248;BME280;55809;46.618;10.764;2024-03-23T03:10:31;92690.34;;;7.67;100.00
57248;BME280;55809;46.618;10.764;2024-03-23T03:13:00;92721.41;;;7.75;100.00
57248;BME280;55809;46.618;10.764;2024-03-23T03:15:28;92711.84;;;7.64;100.00
57248;BME280;55809;46.618;10.764;2024-03-23T03:17:55;92711.84;;;7.64;100.00
57248;BME280;55809;46.618;10.764;2024-03-23T03:20:21;92716.44;;;7.60;100.00
57248;BME280;55809;46.618;10.764;2024-03-23T03:22:49;92712.59;;;7.50;100.00
57248;BME280;55809;46.618;10.764;2024-03-23T03:25:15;92712.25;;;7.41;100.00
57248;BME280;55809;46.618;10.764;2024-03-23T03:27:42;92670.78;;;7.02;100.00
57248;BME280;55809;46.618;10.764;2024-03-23T03:30:09;92701.09;;;7.28;100.00
57248;BME280;55809;46.618;10.764;2024-03-23T03:32:38;92604.03;;;6.54;100.00
57248;BME280;55809;46.618;10.764;2024-03-23T03:35:04;92703.75;;;7.07;100.00
57248;BME280;55809;46.618;10.764;2024-03-23T03:37:31;92707.19;;;6.93;100.00
57248;BME280;55809;46.618;10.764;2024-03-23T03:39:57;92666.50;;;6.69;100.00
57248;BME280;55809;46.618;10.764;2024-03-23T03:42:24;92696.09;;;6.94;100.00
57248;BME280;55809;46.618;10.764;2024-03-23T03:44:50;92697.97;;;6.97;100.00
57248;BME280;55809;46.618;10.764;2024-03-23T03:47:19;92693.00;;;7.14;100.00
57248;BME280;55809;46.618;10.764;2024-03-23T03:49:47;92688.03;;;7.23;100.00
57248;BME280;55809;46.618;10.764;2024-03-23T03:52:14;92686.16;;;7.31;100.00
57248;BME280;55809;46.618;10.764;2024-03-23T03:54:40;92661.22;;;7.09;100.00
57248;BME280;55809;46.618;10.764;2024-03-23T03:57:07;92675.38;;;7.16;100.00
57248;BME280;55809;46.618;10.764;2024-03-23T03:59:33;92676.94;;;7.17;100.00
57248;BME280;55809;46.618;10.764;2024-03-23T04:02:00;92668.88;;;7.24;100.00
57248;BME280;55809;46.618;10.764;2024-03-23T04:04:26;92665.03;;;7.29;100.00
57248;BME280;55809;46.618;10.764;2024-03-23T04:06:59;92663.50;;;7.42;100.00
57248;BME280;55809;46.618;10.764;2024-03-23T04:09:25;92635.91;;;7.10;100.00
57248;BME280;55809;46.618;10.764;2024-03-23T04:11:52;92663.88;;;7.19;100.00
57248;BME280;55809;46.618;10.764;2024-03-23T04:14:18;92671.19;;;7.22;100.00
57248;BME280;55809;46.618;10.764;2024-03-23T04:16:45;92663.88;;;7.26;100.00
57248;BME280;55809;46.618;10.764;2024-03-23T04:19:11;92669.25;;;7.26;100.00
57248;BME280;55809;46.618;10.764;2024-03-23T04:21:38;92666.94;;;7.11;100.00
57248;BME280;55809;46.618;10.764;2024-03-23T04:27:27;92642.06;;;7.17;100.00
57248;BME280;55809;46.618;10.764;2024-03-23T04:29:54;92646.66;;;7.31;100.00
57248;BME280;55809;46.618;10.764;2024-03-23T04:32:20;92633.59;;;7.37;100.00
57248;BME280;55809;46.618;10.764;2024-03-23T04:34:48;92642.78;;;7.39;100.00
57248;BME280;55809;46.618;10.764;2024-03-23T04:37:14;92642.03;;;7.32;100.00
57248;BME280;55809;46.618;10.764;2024-03-23T04:39:42;92654.72;;;7.24;100.00
57248;BME280;55809;46.618;10.764;2024-03-23T04:42:09;92648.53;;;7.27;100.00
57248;BME280;55809;46.618;10.764;2024-03-23T04:44:37;92657.38;;;7.20;100.00
57248;BME280;55809;46.618;10.764;2024-03-23T04:47:05;92648.94;;;7.22;100.00
57248;BME280;55809;46.618;10.764;2024-03-23T04:49:32;92658.13;;;7.14;100.00
57248;BME280;55809;46.618;10.764;2024-03-23T04:51:58;92642.03;;;6.99;100.00
57248;BME280;55809;46.618;10.764;2024-03-23T04:54:25;92646.63;;;6.95;100.00
57248;BME280;55809;46.618;10.764;2024-03-23T04:56:54;92606.34;;;6.70;100.00
57248;BME280;55809;46.618;10.764;2024-03-23T04:59:24;92584.88;;;6.49;100.00
57248;BME280;55809;46.618;10.764;2024-03-23T05:01:51;92568.38;;;6.25;100.00
57248;BME280;55809;46.618;10.764;2024-03-23T05:04:18;92640.09;;;6.75;100.00
57248;BME280;55809;46.618;10.764;2024-03-23T05:06:44;92646.22;;;6.86;100.00
57248;BME280;55809;46.618;10.764;2024-03-23T05:09:11;92545.03;;;6.26;100.00
57248;BME280;55809;46.618;10.764;2024-03-23T05:11:37;92637.81;;;6.98;100.00
57248;BME280;55809;46.618;10.764;2024-03-23T05:14:04;92591.03;;;6.64;100.00
57248;BME280;55809;46.618;10.764;2024-03-23T05:16:30;92615.59;;;6.94;100.00
57248;BME280;55809;46.618;10.764;2024-03-23T05:18:59;92605.63;;;6.95;100.00
57248;BME280;55809;46.618;10.764;2024-03-23T05:21:25;92610.59;;;6.96;100.00
57248;BME280;55809;46.618;10.764;2024-03-23T05:23:53;92615.19;;;6.92;100.00
57248;BME280;55809;46.618;10.764;2024-03-23T05:26:20;92608.28;;;6.88;100.00
57248;BME280;55809;46.618;10.764;2024-03-23T05:28:47;92608.69;;;6.86;100.00
57248;BME280;55809;46.618;10.764;2024-03-23T05:31:13;92608.28;;;6.77;100.00
57248;BME280;55809;46.618;10.764;2024-03-23T05:33:49;92603.69;;;6.77;100.00
57248;BME280;55809;46.618;10.764;2024-03-23T05:36:17;92592.19;;;6.77;100.00
57248;BME280;55809;46.618;10.764;2024-03-23T05:38:44;92559.25;;;6.69;100.00
57248;BME280;55809;46.618;10.764;2024-03-23T05:41:10;92597.16;;;7.43;100.00
57248;BME280;55809;46.618;10.764;2024-03-23T05:43:37;92585.91;;;7.87;100.00
57248;BME280;55809;46.618;10.764;2024-03-23T05:46:03;92578.81;;;8.36;100.00
57248;BME280;55809;46.618;10.764;2024-03-23T05:48:31;92524.25;;;8.39;100.00
57248;BME280;55809;46.618;10.764;2024-03-23T05:50:57;92556.13;;;8.97;100.00
57248;BME280;55809;46.618;10.764;2024-03-23T05:53:25;92562.09;;;9.22;100.00
57248;BME280;55809;46.618;10.764;2024-03-23T05:55:59;92534.53;;;9.04;100.00
57248;BME280;55809;46.618;10.764;2024-03-23T05:58:27;92563.75;;;9.47;100.00
57248;BME280;55809;46.618;10.764;2024-03-23T06:00:57;92557.72;;;9.73;100.00
57248;BME280;55809;46.618;10.764;2024-03-23T06:03:24;92513.25;;;9.58;100.00
57248;BME280;55809;46.618;10.764;2024-03-23T06:05:51;92557.28;;;10.13;100.00
57248;BME280;55809;46.618;10.764;2024-03-23T06:08:18;92558.50;;;10.39;100.00
57248;BME280;55809;46.618;10.764;2024-03-23T06:10:47;92535.81;;;10.36;100.00
57248;BME280;55809;46.618;10.764;2024-03-23T06:13:13;92540.25;;;10.50;100.00
57248;BME280;55809;46.618;10.764;2024-03-23T06:15:40;92559.63;;;10.95;100.00
57248;BME280;55809;46.618;10.764;2024-03-23T06:18:06;92510.91;;;10.79;100.00
57248;BME280;55809;46.618;10.764;2024-03-23T06:20:34;92549.31;;;10.90;100.00
57248;BME280;55809;46.618;10.764;2024-03-23T06:23:00;92550.91;;;11.11;100.00
57248;BME280;55809;46.618;10.764;2024-03-23T06:25:28;92558.56;;;11.16;100.00
57248;BME280;55809;46.618;10.764;2024-03-23T06:27:55;92505.03;;;10.61;100.00
57248;BME280;55809;46.618;10.764;2024-03-23T06:30:23;92552.94;;;10.80;100.00
57248;BME280;55809;46.618;10.764;2024-03-23T06:32:49;92498.16;;;10.25;100.00
57248;BME280;55809;46.618;10.764;2024-03-23T06:35:16;92512.56;;;10.15;100.00
57248;BME280;55809;46.618;10.764;2024-03-23T06:37:42;92557.31;;;10.70;100.00
57248;BME280;55809;46.618;10.764;2024-03-23T06:40:09;92557.03;;;10.00;100.00
57248;BME280;55809;46.618;10.764;2024-03-23T06:42:36;92488.19;;;9.23;100.00
57248;BME280;55809;46.618;10.764;2024-03-23T06:45:05;92562.28;;;9.42;100.00
57248;BME280;55809;46.618;10.764;2024-03-23T06:47:32;92560.53;;;9.25;100.00
57248;BME280;55809;46.618;10.764;2024-03-23T06:50:00;92569.88;;;9.09;100.00
57248;BME280;55809;46.618;10.764;2024-03-23T06:52:27;92559.69;;;8.86;100.00
57248;BME280;55809;46.618;10.764;2024-03-23T06:54:54;92548.56;;;8.81;100.00
57248;BME280;55809;46.618;10.764;2024-03-23T06:57:20;92563.25;;;8.69;100.00
57248;BME280;55809;46.618;10.764;2024-03-23T06:59:47;92564.34;;;8.79;100.00
57248;BME280;55809;46.618;10.764;2024-03-23T07:02:16;92564.69;;;8.84;100.00
57248;BME280;55809;46.618;10.764;2024-03-23T07:04:43;92553.38;;;9.04;100.00
57248;BME280;55809;46.618;10.764;2024-03-23T07:07:12;92550.22;;;9.92;100.00
57248;BME280;55809;46.618;10.764;2024-03-23T07:09:39;92547.78;;;10.35;100.00
57248;BME280;55809;46.618;10.764;2024-03-23T07:12:08;92501.28;;;10.78;100.00
57248;BME280;55809;46.618;10.764;2024-03-23T07:14:38;92524.19;;;11.40;100.00
57248;BME280;55809;46.618;10.764;2024-03-23T07:17:04;92523.66;;;11.69;100.00
57248;BME280;55809;46.618;10.764;2024-03-23T07:19:33;92517.88;;;11.90;100.00
57248;BME280;55809;46.618;10.764;2024-03-23T07:21:59;92512.56;;;12.23;100.00
57248;BME280;55809;46.618;10.764;2024-03-23T07:24:29;92475.06;;;12.41;100.00
57248;BME280;55809;46.618;10.764;2024-03-23T07:26:56;92511.09;;;12.91;100.00
57248;BME280;55809;46.618;10.764;2024-03-23T07:29:24;92499.41;;;13.27;100.00
57248;BME280;55809;46.618;10.764;2024-03-23T07:31:49;92496.91;;;13.49;100.00
57248;BME280;55809;46.618;10.764;2024-03-23T07:34:17;92480.59;;;13.65;100.00
57248;BME280;55809;46.618;10.764;2024-03-23T07:36:44;92467.56;;;13.89;100.00
57248;BME280;55809;46.618;10.764;2024-03-23T07:39:11;92461.00;;;14.16;100.00
57248;BME280;55809;46.618;10.764;2024-03-23T07:41:38;92454.81;;;14.41;100.00
57248;BME280;55809;46.618;10.764;2024-03-23T07:44:04;92449.31;;;14.70;100.00
57248;BME280;55809;46.618;10.764;2024-03-23T07:46:31;92353.06;;;14.45;100.00
57248;BME280;55809;46.618;10.764;2024-03-23T07:48:57;92433.03;;;15.17;100.00
57248;BME280;55809;46.618;10.764;2024-03-23T07:51:24;92360.63;;;14.76;100.00
57248;BME280;55809;46.618;10.764;2024-03-23T07:53:52;92411.25;;;15.30;100.00
57248;BME280;55809;46.618;10.764;2024-03-23T07:56:19;92412.47;;;15.51;100.00
57248;BME280;55809;46.618;10.764;2024-03-23T07:58:45;92409.50;;;15.58;100.00
57248;BME280;55809;46.618;10.764;2024-03-23T08:01:16;92407.69;;;15.77;100.00
57248;BME280;55809;46.618;10.764;2024-03-23T08:03:44;92409.63;;;15.99;100.00
57248;BME280;55809;46.618;10.764;2024-03-23T08:06:12;92406.16;;;15.98;100.00
57248;BME280;55809;46.618;10.764;2024-03-23T08:08:39;92395.66;;;16.18;100.00
57248;BME280;55809;46.618;10.764;2024-03-23T08:11:08;92311.84;;;15.82;100.00
57248;BME280;55809;46.618;10.764;2024-03-23T08:13:34;92308.09;;;15.80;100.00
57248;BME280;55809;46.618;10.764;2024-03-23T08:16:03;92364.81;;;16.22;100.00
57248;BME280;55809;46.618;10.764;2024-03-23T08:18:30;92268.66;;;15.62;100.00
57248;BME280;55809;46.618;10.764;2024-03-23T08:20:58;92358.63;;;16.21;100.00
57248;BME280;55809;46.618;10.764;2024-03-23T08:23:24;92332.97;;;16.00;100.00
57248;BME280;55809;46.618;10.764;2024-03-23T08:25:51;92354.41;;;16.29;100.00
57248;BME280;55809;46.618;10.764;2024-03-23T08:28:19;92309.69;;;15.68;100.00
57248;BME280;55809;46.618;10.764;2024-03-23T08:30:46;92354.91;;;16.37;100.00
57248;BME280;55809;46.618;10.764;2024-03-23T08:33:12;92363.69;;;16.41;100.00
57248;BME280;55809;46.618;10.764;2024-03-23T08:35:39;92351.28;;;16.40;100.00
57248;BME280;55809;46.618;10.764;2024-03-23T08:38:06;92349.38;;;16.59;100.00
57248;BME280;55809;46.618;10.764;2024-03-23T08:40:32;92342.25;;;16.52;100.00
57248;BME280;55809;46.618;10.764;2024-03-23T08:42:59;92342.13;;;16.74;100.00
57248;BME280;55809;46.618;10.764;2024-03-23T08:45:26;92293.72;;;16.78;100.00
57248;BME280;55809;46.618;10.764;2024-03-23T08:47:53;92332.34;;;17.23;100.00
57248;BME280;55809;46.618;10.764;2024-03-23T08:50:19;92293.72;;;16.97;100.00
57248;BME280;55809;46.618;10.764;2024-03-23T08:52:47;92319.03;;;17.25;100.00
57248;BME280;55809;46.618;10.764;2024-03-23T08:55:13;92319.91;;;17.40;100.00
57248;BME280;55809;46.618;10.764;2024-03-23T08:57:40;92266.28;;;17.28;100.00
57248;BME280;55809;46.618;10.764;2024-03-23T09:00:07;92307.72;;;17.69;100.00
57248;BME280;55809;46.618;10.764;2024-03-23T09:02:36;92308.97;;;17.58;100.00
57248;BME280;55809;46.618;10.764;2024-03-23T09:05:01;92301.34;;;17.72;100.00
57248;BME280;55809;46.618;10.764;2024-03-23T09:07:30;92297.88;;;17.71;100.00
57248;BME280;55809;46.618;10.764;2024-03-23T09:09:56;92287.16;;;17.49;100.00
57248;BME280;55809;46.618;10.764;2024-03-23T09:12:23;92290.63;;;17.59;100.00
57248;BME280;55809;46.618;10.764;2024-03-23T09:14:49;92289.13;;;17.49;100.00
57248;BME280;55809;46.618;10.764;2024-03-23T09:17:16;92292.19;;;17.42;100.00
57248;BME280;55809;46.618;10.764;2024-03-23T09:19:45;92288.38;;;17.39;100.00
57248;BME280;55809;46.618;10.764;2024-03-23T09:22:12;92288.19;;;17.61;100.00
57248;BME280;55809;46.618;10.764;2024-03-23T09:24:38;92272.44;;;18.08;100.00
57248;BME280;55809;46.618;10.764;2024-03-23T09:27:06;92281.38;;;18.17;100.00
57248;BME280;55809;46.618;10.764;2024-03-23T09:29:32;92275.81;;;18.02;100.00
57248;BME280;55809;46.618;10.764;2024-03-23T09:31:59;92282.53;;;17.83;100.00
57248;BME280;55809;46.618;10.764;2024-03-23T09:34:25;92269.72;;;17.56;100.00
57248;BME280;55809;46.618;10.764;2024-03-23T09:36:53;92249.09;;;17.64;100.00
57248;BME280;55809;46.618;10.764;2024-03-23T09:39:19;92268.03;;;17.68;100.00
57248;BME280;55809;46.618;10.764;2024-03-23T09:41:47;92263.91;;;17.72;100.00
57248;BME280;55809;46.618;10.764;2024-03-23T09:44:13;92257.53;;;17.85;100.00
57248;BME280;55809;46.618;10.764;2024-03-23T09:46:40;92255.25;;;17.83;100.00
57248;BME280;55809;46.618;10.764;2024-03-23T09:49:07;92253.28;;;17.74;100.00
57248;BME280;55809;46.618;10.764;2024-03-23T09:51:36;92243.88;;;17.75;100.00
57248;BME280;55809;46.618;10.764;2024-03-23T09:54:04;92247.69;;;17.78;100.00
57248;BME280;55809;46.618;10.764;2024-03-23T09:56:31;92212.97;;;17.78;100.00
57248;BME280;55809;46.618;10.764;2024-03-23T09:59:03;92239.31;;;17.91;100.00
57248;BME280;55809;46.618;10.764;2024-03-23T10:01:30;92199.22;;;17.54;100.00
57248;BME280;55809;46.618;10.764;2024-03-23T10:03:56;92231.84;;;18.00;100.00
57248;BME280;55809;46.618;10.764;2024-03-23T10:06:23;92234.19;;;18.17;100.00
57248;BME280;55809;46.618;10.764;2024-03-23T10:08:51;92231.06;;;18.00;100.00
57248;BME280;55809;46.618;10.764;2024-03-23T10:11:19;92219.53;;;17.96;100.00
57248;BME280;55809;46.618;10.764;2024-03-23T10:13:47;92222.91;;;17.48;100.00
57248;BME280;55809;46.618;10.764;2024-03-23T10:16:21;92215.50;;;17.30;100.00
57248;BME280;55809;46.618;10.764;2024-03-23T10:18:48;92218.19;;;17.49;100.00
57248;BME280;55809;46.618;10.764;2024-03-23T10:21:15;92210.75;;;17.49;100.00
57248;BME280;55809;46.618;10.764;2024-03-23T10:23:43;92207.47;;;17.36;100.00
57248;BME280;55809;46.618;10.764;2024-03-23T10:26:15;92193.16;;;17.08;100.00
57248;BME280;55809;46.618;10.764;2024-03-23T10:28:57;92171.69;;;16.82;100.00
57248;BME280;55809;46.618;10.764;2024-03-23T10:31:26;92159.09;;;16.85;100.00
57248;BME280;55809;46.618;10.764;2024-03-23T10:33:53;92122.47;;;16.77;100.00
57248;BME280;55809;46.618;10.764;2024-03-23T10:36:21;92152.38;;;17.04;100.00
57248;BME280;55809;46.618;10.764;2024-03-23T10:38:50;92146.66;;;17.02;100.00
57248;BME280;55809;46.618;10.764;2024-03-23T10:41:18;92136.16;;;17.10;100.00
57248;BME280;55809;46.618;10.764;2024-03-23T10:43:46;92128.66;;;16.68;100.00
57248;BME280;55809;46.618;10.764;2024-03-23T10:46:16;92121.41;;;16.65;100.00
57248;BME280;55809;46.618;10.764;2024-03-23T10:48:44;92118.25;;;16.76;100.00
57248;BME280;55809;46.618;10.764;2024-03-23T10:51:12;92098.53;;;16.72;100.00
57248;BME280;55809;46.618;10.764;2024-03-23T10:53:41;92090.91;;;16.94;100.00
57248;BME280;55809;46.618;10.764;2024-03-23T10:56:10;92096.09;;;16.92;100.00
57248;BME280;55809;46.618;10.764;2024-03-23T10:58:41;92093.47;;;17.07;100.00
57248;BME280;55809;46.618;10.764;2024-03-23T11:01:11;92079.22;;;17.12;100.00
57248;BME280;55809;46.618;10.764;2024-03-23T11:03:45;92074.34;;;17.16;100.00
57248;BME280;55809;46.618;10.764;2024-03-23T11:06:35;92074.63;;;16.67;100.00
57248;BME280;55809;46.618;10.764;2024-03-23T11:09:02;92036.97;;;16.56;100.00
57248;BME280;55809;46.618;10.764;2024-03-23T11:11:30;92053.25;;;16.74;100.00
57248;BME280;55809;46.618;10.764;2024-03-23T11:13:57;92039.19;;;16.67;100.00
57248;BME280;55809;46.618;10.764;2024-03-23T11:16:29;92040.63;;;16.25;100.00
57248;BME280;55809;46.618;10.764;2024-03-23T11:21:59;91999.63;;;16.38;100.00
57248;BME280;55809;46.618;10.764;2024-03-23T11:24:26;92019.97;;;16.61;100.00
57248;BME280;55809;46.618;10.764;2024-03-23T11:26:58;92011.13;;;16.33;100.00
57248;BME280;55809;46.618;10.764;2024-03-23T11:29:27;92002.72;;;15.76;100.00
57248;BME280;55809;46.618;10.764;2024-03-23T11:31:56;91948.88;;;15.34;100.00
57248;BME280;55809;46.618;10.764;2024-03-23T11:34:24;91963.72;;;15.88;100.00
57248;BME280;55809;46.618;10.764;2024-03-23T11:37:05;91974.28;;;16.04;100.00
57248;BME280;55809;46.618;10.764;2024-03-23T11:39:32;91969.47;;;15.71;100.00
57248;BME280;55809;46.618;10.764;2024-03-23T11:42:06;91961.31;;;15.90;100.00
57248;BME280;55809;46.618;10.764;2024-03-23T11:44:34;91942.53;;;15.64;100.00
57248;BME280;55809;46.618;10.764;2024-03-23T11:47:07;91860.22;;;15.18;100.00
57248;BME280;55809;46.618;10.764;2024-03-23T11:49:35;91868.63;;;14.74;100.00
57248;BME280;55809;46.618;10.764;2024-03-23T11:52:07;91924.88;;;15.51;100.00
57248;BME280;55809;46.618;10.764;2024-03-23T11:54:35;91789.28;;;14.79;100.00
57248;BME280;55809;46.618;10.764;2024-03-23T11:57:07;91896.75;;;15.26;100.00
57248;BME280;55809;46.618;10.764;2024-03-23T11:59:35;91903.72;;;15.27;100.00
57248;BME280;55809;46.618;10.764;2024-03-23T12:02:06;91900.69;;;15.53;100.00
57248;BME280;55809;46.618;10.764;2024-03-23T12:04:34;91884.97;;;15.84;100.00
57248;BME280;55809;46.618;10.764;2024-03-23T12:07:12;91870.94;;;15.40;100.00
57248;BME280;55809;46.618;10.764;2024-03-23T12:09:39;91876.69;;;15.05;100.00
57248;BME280;55809;46.618;10.764;2024-03-23T12:12:11;91834.06;;;14.56;100.00
57248;BME280;55809;46.618;10.764;2024-03-23T12:14:43;91870.44;;;14.59;100.00
57248;BME280;55809;46.618;10.764;2024-03-23T12:17:11;91859.63;;;14.37;100.00
57248;BME280;55809;46.618;10.764;2024-03-23T12:19:41;91844.97;;;14.25;100.00
57248;BME280;55809;46.618;10.764;2024-03-23T12:22:10;91847.22;;;14.26;100.00
57248;BME280;55809;46.618;10.764;2024-03-23T12:24:38;91842.66;;;14.05;100.00
57248;BME280;55809;46.618;10.764;2024-03-23T12:27:11;91820.00;;;13.68;100.00
57248;BME280;55809;46.618;10.764;2024-03-23T12:29:42;91855.53;;;13.92;100.00
57248;BME280;55809;46.618;10.764;2024-03-23T12:32:09;91858.47;;;13.75;100.00
57248;BME280;55809;46.618;10.764;2024-03-23T12:34:40;91835.13;;;13.78;100.00
57248;BME280;55809;46.618;10.764;2024-03-23T12:37:08;91753.19;;;13.43;100.00
57248;BME280;55809;46.618;10.764;2024-03-23T12:39:42;91800.00;;;14.05;100.00
57248;BME280;55809;46.618;10.764;2024-03-23T12:42:09;91750.97;;;14.00;100.00
57248;BME280;55809;46.618;10.764;2024-03-23T12:44:36;91784.75;;;14.08;100.00
57248;BME280;55809;46.618;10.764;2024-03-23T12:47:06;91761.38;;;13.92;100.00
57248;BME280;55809;46.618;10.764;2024-03-23T12:49:33;91789.53;;;13.86;100.00
57248;BME280;55809;46.618;10.764;2024-03-23T12:52:00;91712.41;;;13.46;100.00
57248;BME280;55809;46.618;10.764;2024-03-23T12:54:31;91765.88;;;13.86;100.00
57248;BME280;55809;46.618;10.764;2024-03-23T12:57:02;91737.00;;;13.61;100.00
57248;BME280;55809;46.618;10.764;2024-03-23T12:59:32;91761.25;;;13.65;100.00
57248;BME280;55809;46.618;10.764;2024-03-23T13:02:03;91701.34;;;13.31;100.00
57248;BME280;55809;46.618;10.764;2024-03-23T13:04:30;91742.88;;;13.59;100.00
57248;BME280;55809;46.618;10.764;2024-03-23T13:06:59;91746.56;;;13.44;100.00
57248;BME280;55809;46.618;10.764;2024-03-23T13:09:27;91743.25;;;13.40;100.00
57248;BME280;55809;46.618;10.764;2024-03-23T13:11:54;91712.19;;;13.09;100.00
57248;BME280;55809;46.618;10.764;2024-03-23T13:14:24;91744.41;;;13.38;100.00
57248;BME280;55809;46.618;10.764;2024-03-23T13:16:51;91749.53;;;13.36;100.00
57248;BME280;55809;46.618;10.764;2024-03-23T13:19:20;91768.50;;;13.36;100.00
57248;BME280;55809;46.618;10.764;2024-03-23T13:21:47;91800.22;;;13.27;100.00
57248;BME280;55809;46.618;10.764;2024-03-23T13:24:15;91747.09;;;12.63;100.00
57248;BME280;55809;46.618;10.764;2024-03-23T13:26:41;91845.09;;;13.28;100.00
57248;BME280;55809;46.618;10.764;2024-03-23T13:29:13;91831.88;;;13.30;100.00
57248;BME280;55809;46.618;10.764;2024-03-23T13:31:45;91769.66;;;12.60;100.00
57248;BME280;55809;46.618;10.764;2024-03-23T13:34:14;91705.84;;;12.03;100.00
57248;BME280;55809;46.618;10.764;2024-03-23T13:36:42;91846.06;;;12.64;100.00
57248;BME280;55809;46.618;10.764;2024-03-23T13:39:11;91866.38;;;12.47;100.00
57248;BME280;55809;46.618;10.764;2024-03-23T13:41:38;91870.38;;;12.30;100.00
57248;BME280;55809;46.618;10.764;2024-03-23T13:44:07;91875.41;;;11.64;100.00
57248;BME280;55809;46.618;10.764;2024-03-23T13:46:34;91895.41;;;11.24;100.00
57248;BME280;55809;46.618;10.764;2024-03-23T13:49:04;91915.25;;;10.89;100.00